createdAt,value
2022-08-25T00:03:09.511Z,83.71
2022-08-25T00:18:19.870Z,84.68
2022-08-25T00:33:26.494Z,86.92
2022-08-25T00:48:32.075Z,88.35
2022-08-25T01:03:37.863Z,91.47
2022-08-25T01:18:49.479Z,92.21
2022-08-25T01:33:55.226Z,92.62
2022-08-25T01:49:06.214Z,94.11
2022-08-25T02:04:12.593Z,95.27
2022-08-25T02:19:19.419Z,95.52
2022-08-25T02:34:25.528Z,95.80
2022-08-25T02:49:32.399Z,96.75
2022-08-25T03:04:38.117Z,97.04
2022-08-25T03:19:43.910Z,97.68
2022-08-25T03:34:49.557Z,97.39
2022-08-25T03:49:55.113Z,97.49
2022-08-25T04:05:01.231Z,97.68
2022-08-25T04:20:08.452Z,98.24
2022-08-25T04:35:14.600Z,99.74
2022-08-25T04:50:20.537Z,99.03
2022-08-25T05:05:26.076Z,99.55
2022-08-25T05:20:32.074Z,99.92
2022-08-25T05:35:38.097Z,100.12
2022-08-25T05:50:43.734Z,95.39
2022-08-25T06:05:49.657Z,91.49
2022-08-25T06:20:55.683Z,85.87
2022-08-25T06:36:01.450Z,81.16
2022-08-25T06:51:14.021Z,78.00
2022-08-25T07:06:20.603Z,73.73
2022-08-25T07:21:31.230Z,70.08
2022-08-25T07:36:39.065Z,68.57
2022-08-25T07:52:03.599Z,68.25
2022-08-25T08:07:12.377Z,67.48
2022-08-25T08:22:18.166Z,64.55
2022-08-25T08:37:24.084Z,62.15
2022-08-25T08:52:40.464Z,61.37
2022-08-25T09:07:54.832Z,60.02
2022-08-25T09:23:13.676Z,58.66
2022-08-25T09:38:19.889Z,56.66
2022-08-25T09:53:26.334Z,54.39
2022-08-25T10:08:37.481Z,54.65
2022-08-25T10:23:49.743Z,54.23
2022-08-25T10:39:01.415Z,54.03
2022-08-25T10:54:16.040Z,50.88
2022-08-25T11:09:26.004Z,50.28
2022-08-25T11:24:47.103Z,49.39
2022-08-25T11:40:20.407Z,50.11
2022-08-25T11:55:48.806Z,46.67
2022-08-25T12:11:00.489Z,46.41
2022-08-25T12:26:11.174Z,49.36
2022-08-25T12:41:22.548Z,47.24
2022-08-25T12:56:37.500Z,46.99
2022-08-25T13:11:52.976Z,45.18
2022-08-25T13:27:04.497Z,43.38
2022-08-25T13:42:17.124Z,44.10
2022-08-25T13:57:30.241Z,44.13
2022-08-25T14:12:40.204Z,44.35
2022-08-25T14:28:13.666Z,44.60
2022-08-25T14:43:23.634Z,42.90
2022-08-25T14:58:34.274Z,48.47
2022-08-25T15:13:40.631Z,48.28
2022-08-25T15:28:50.525Z,50.76
2022-08-25T15:43:56.742Z,50.02
2022-08-25T15:59:08.701Z,50.88
2022-08-25T16:14:15.434Z,52.32
2022-08-25T16:29:21.811Z,52.88
2022-08-25T16:44:28.250Z,52.63
2022-08-25T16:59:34.024Z,54.18
2022-08-25T17:14:40.069Z,57.45
2022-08-25T17:29:49.007Z,57.29
2022-08-25T17:44:54.843Z,61.30
2022-08-25T18:00:00.603Z,68.98
2022-08-25T18:15:08.282Z,73.54
2022-08-25T18:30:15.496Z,73.98
2022-08-25T18:45:22.911Z,76.82
2022-08-25T19:00:31.982Z,78.64
2022-08-25T19:15:38.733Z,82.85
2022-08-25T19:30:49.932Z,84.19
2022-08-25T19:45:56.677Z,85.19
2022-08-25T20:01:02.579Z,86.57
2022-08-25T20:16:09.777Z,88.11
2022-08-25T20:31:15.682Z,88.11
2022-08-25T20:46:21.689Z,88.92
2022-08-25T21:01:38.061Z,90.21
2022-08-25T21:16:47.035Z,92.91
2022-08-25T21:31:53.152Z,92.57
2022-08-25T21:47:01.529Z,92.75
2022-08-25T22:02:09.619Z,93.11
2022-08-25T22:17:16.987Z,94.91
2022-08-25T22:32:27.177Z,94.40
2022-08-25T22:47:32.994Z,94.78
2022-08-25T23:02:39.002Z,95.12
2022-08-25T23:17:44.815Z,95.63
2022-08-25T23:32:50.735Z,94.21
2022-08-25T23:47:56.548Z,96.10
